• Join FlightAware (Why Join?)
  • Login
  • US Flag 
10:51AM EST


 

Airport Tracker/Info


-or-


 

Live Flight TrackerFlight Track Log ✈ AWE786 ✈ 21-Mar-2014 ✈ KIAH - KCLT

Flight Track Log - Related Links

Times and Time Zones

All times are in EDT time to prevent confusion due to time zone crossing. See the AWE786 flight status page for this flight to view local times or setup timezone preferences in your user account.

Time Position Orientation Groundspeed Altitude Reporting Facility
EDT Latitude Longitude Course Direction KTS MPH feet Rate Location/Type
01:19PM 29.9572 -95.3417 90° East 173 199 900  Level Houston Center
01:19PM 29.9457 -95.3270 134° Southeast 170 196 1,600 2,220 Climbing FlightAware ADS-B (KHOU)
01:19PM 29.9433 -95.3264 136° Southeast 167 192 1,800 1,560 Climbing Houston Center
01:20PM 29.9374 -95.3163 130° Southeast 189 217 2,000 1,020 Climbing FlightAware ADS-B (KHOU)
01:20PM 29.9345 -95.3123 127° Southeast 195 224 2,100 600 Climbing FlightAware ADS-B (KHOU)
01:20PM 29.9322 -95.3083 118° Southeast 204 235 2,100 480 Level FlightAware ADS-B (KHOU)
01:20PM 29.9299 -95.3010 103° East 215 247 2,200 1,320 Climbing FlightAware ADS-B
01:20PM 29.9294 -95.2974 96° East 222 255 2,300 1,500 Climbing FlightAware ADS-B (KHOU)
01:20PM 29.9291 -95.2920 91° East 229 264 2,400 1,080 Climbing FlightAware ADS-B (KHOU)
01:20PM 29.9291 -95.2851 89° East 235 270 2,500 1,800 Climbing FlightAware ADS-B (KHOU)
01:20PM 29.9292 -95.2783 89° East 241 277 2,700 1,800 Climbing FlightAware ADS-B (KHOU)
01:20PM 29.9292 -95.2723 88° East 247 284 2,800 1,680 Climbing FlightAware ADS-B (KHOU)
01:20PM 29.9292 -95.2631 104° East 257 296 3,100 1,560 Climbing Houston Center
01:20PM 29.9294 -95.2516 89° East 262 302 3,200 1,260 Climbing FlightAware ADS-B (KHOU)
01:21PM 29.9289 -95.2494 91° East 237 273 3,400 2,400 Climbing Houston Center
01:21PM 29.9336 -95.1758 86° East 295 339 5,400 2,340 Climbing Houston Center
01:22PM 29.9358 -95.1586 82° East 280 322 5,900 2,700 Climbing Houston Center
01:22PM 29.9411 -95.0758 86° East 300 345 8,200 2,460 Climbing Houston Center
01:23PM 29.9834 -94.9580 90° East  Level FlightAware Approximate
01:23PM 29.9433 -95.0644 77° East 289 333 8,500  Level Houston Center
01:23PM 29.9486 -94.9761 86° East 313 360 10,300 1,800 Climbing Houston Center
01:24PM 29.9834 -94.8126 90° East  Level FlightAware Approximate
01:24PM 29.9494 -94.9642 85° East 310 357 10,400  Level Houston Center
01:25PM 29.9592 -94.8481 84° East 363 418 11,500 1,740 Climbing Houston Center
01:26PM 29.9694 -94.6942 86° East 398 458 14,000 2,220 Climbing Houston Center
01:27PM 29.9786 -94.5614 85° East 412 474 16,100 1,500 Climbing Houston Center
01:32PM 30.0634 -93.7606 82° East 496 571 23,900 1,380 Climbing FlightAware ADS-B (KHOU)
01:32PM 30.0671 -93.7306 81° East 498 573 24,100 1,020 Climbing FlightAware ADS-B (KHOU)
01:33PM 30.0767 -93.6517 82° East 504 580 24,600 1,080 Climbing FlightAware ADS-B (KHOU)
01:33PM 30.0864 -93.5710 81° East 509 586 25,200 1,020 Climbing FlightAware ADS-B (KHOU)
01:34PM 30.0896 -93.5444 82° East 510 587 25,300 900 Climbing FlightAware ADS-B (KHOU)
01:34PM 30.0983 -93.4719 82° East 515 593 25,800 960 Climbing FlightAware ADS-B (KHOU)
01:35PM 30.1092 -93.3810 82° East 521 600 26,300 960 Climbing FlightAware ADS-B (KHOU)
01:35PM 30.1188 -93.2990 82° East 524 603 26,800 840 Climbing FlightAware ADS-B (KHOU)
01:36PM 30.1287 -93.2150 82° East 527 606 27,200 840 Climbing FlightAware ADS-B (KHOU)
01:36PM 30.1436 -93.1321 73° East 529 609 27,700 900 Climbing FlightAware ADS-B (KHOU)
01:36PM 30.1509 -93.1069 70° East 527 606 27,800 900 Climbing FlightAware ADS-B (KHOU)
01:36PM 30.1604 -93.0800 68° East 527 606 28,000 900 Climbing FlightAware ADS-B (KHOU)
01:37PM 30.1696 -93.0581 62° Northeast 526 605 28,100 840 Climbing FlightAware ADS-B (KHOU)
01:37PM 30.1813 -93.0339 58° Northeast 524 603 28,300 840 Climbing FlightAware ADS-B (KHOU)
01:37PM 30.1956 -93.0076 57° Northeast 525 604 28,400 600 Climbing FlightAware ADS-B (KHOU)
01:37PM 30.2335 -92.9381 57° Northeast 530 610 28,700 780 Climbing FlightAware ADS-B (KHOU)
01:38PM 30.2730 -92.8656 57° Northeast 531 611 29,200 960 Climbing FlightAware ADS-B (KHOU)
01:38PM 30.3124 -92.7935 57° Northeast 531 611 29,700 1,080 Climbing FlightAware ADS-B (KHOU)
01:39PM 30.3501 -92.7243 57° Northeast 528 608 30,300 1,200 Climbing FlightAware ADS-B (KHOU)
01:39PM 30.3904 -92.6500 57° Northeast 527 606 30,900 1,080 Climbing FlightAware ADS-B (KHOU)
01:40PM 30.4300 -92.5768 57° Northeast 525 604 31,400 960 Climbing FlightAware ADS-B (KHOU)
01:40PM 30.4690 -92.5050 57° Northeast 523 602 31,900 1,200 Climbing FlightAware ADS-B (KHOU)
01:41PM 30.5067 -92.4352 58° Northeast 519 597 32,600 1,080 Climbing FlightAware ADS-B (KHOU)
01:41PM 30.5448 -92.3646 57° Northeast 518 596 33,000 660 Climbing FlightAware ADS-B (KHOU)
01:42PM 30.5839 -92.2921 58° Northeast 521 600 33,300 600 Climbing FlightAware ADS-B (KHOU)
01:42PM 30.6220 -92.2213 58° Northeast 525 604 33,600 600 Climbing FlightAware ADS-B (KHOU)
01:43PM 30.6566 -92.1568 58° Northeast 526 605 33,900 600 Climbing FlightAware ADS-B (KHOU)
01:43PM 30.6959 -92.0833 58° Northeast 526 605 34,200 600 Climbing FlightAware ADS-B (KHOU)
01:44PM 30.7764 -91.9325 58° Northeast 523 602 34,900 540 Climbing Houston Center
01:46PM 30.8528 -91.7883 58° Northeast 524 603 35,400 480 Climbing Houston Center
01:47PM 30.9294 -91.6442 58° Northeast 527 606 36,000 480 Climbing Houston Center
01:48PM 31.0061 -91.4992 58° Northeast 527 606 36,400 420 Climbing Houston Center
01:49PM 31.0967 -91.3272 58° Northeast 529 609 36,900 240 Climbing Houston Center
01:50PM 31.1739 -91.1811 58° Northeast 529 609 37,000  Climbing Houston Center
01:51PM 31.2517 -91.0317 59° Northeast 533 613 37,000  Level Houston Center
01:52PM 31.3294 -90.8814 59° Northeast 536 617 37,000 -60 Level Houston Center
01:53PM 31.4069 -90.7311 59° Northeast 536 617 36,900  Descending Houston Center
01:54PM 31.4850 -90.5822 58° Northeast 537 618 37,000  Climbing Houston Center
01:55PM 31.5781 -90.4011 59° Northeast 537 618 37,000  Level Houston Center
01:56PM 31.6531 -90.2517 59° Northeast 536 617 37,000  Level Houston Center
01:57PM 31.7292 -90.1017 59° Northeast 534 615 37,000 -60 Level Houston Center
01:58PM 31.8058 -89.9522 59° Northeast 534 615 36,900  Descending Houston Center
01:59PM 31.8903 -89.7839 59° Northeast 537 618 37,000  Climbing Houston Center
02:00PM 31.9678 -89.6297 59° Northeast 536 617 37,000  Level Memphis Center
02:01PM 32.0594 -89.4500 59° Northeast 536 617 37,000  Level Memphis Center
02:02PM 32.1342 -89.2983 60° Northeast 537 618 37,000  Level Memphis Center
02:03PM 32.2083 -89.1492 60° Northeast 538 619 37,000  Level Memphis Center
02:04PM 32.2814 -89.0017 60° Northeast 535 616 37,000  Level Memphis Center
02:05PM 32.3542 -88.8519 60° Northeast 534 615 37,000  Level Memphis Center
02:06PM 32.4425 -88.6708 60° Northeast 534 615 37,000  Level Memphis Center
02:07PM 32.5117 -88.5189 62° Northeast 530 610 37,000  Level Memphis Center
02:08PM 32.5825 -88.3664 61° Northeast 530 610 37,000  Level Memphis Center
02:09PM 32.6186 -88.2978 58° Northeast 521 600 37,000  Level Atlanta Center
02:09PM 32.6531 -88.2133 64° Northeast 530 610 37,000  Level Memphis Center
02:10PM 32.7383 -88.0311 61° Northeast 530 610 37,000  Level Memphis Center
02:11PM 32.8111 -87.8750 61° Northeast 531 611 37,000  Level Memphis Center
02:13PM 32.8803 -87.7225 62° Northeast 530 610 37,000  Level Memphis Center
02:14PM 32.9503 -87.5675 62° Northeast 530 610 37,000  Level Memphis Center
02:15PM 33.0206 -87.4147 61° Northeast 530 610 37,000  Level Memphis Center
02:16PM 33.0900 -87.2606 62° Northeast 530 610 37,000  Level Memphis Center
02:17PM 33.1731 -87.0753 62° Northeast 530 610 37,000  Level Memphis Center
02:18PM 33.2394 -86.8875 67° East 532 612 37,000  Level Atlanta Center
02:19PM 33.2728 -86.7097 77° East 538 619 37,000  Level Atlanta Center
02:20PM 33.3036 -86.5292 78° East 548 631 37,000  Level Atlanta Center
02:21PM 33.3322 -86.3511 79° East 554 638 37,000  Level Atlanta Center
02:22PM 33.3625 -86.1678 79° East 554 638 37,000  Level Atlanta Center
02:24PM 33.4206 -85.8033 79° East 559 643 37,000  Level Atlanta Center
02:25PM 33.4544 -85.6075 78° East 547 629 37,000  Level Atlanta Center
02:26PM 33.4839 -85.4261 79° East 547 629 37,000  Level Atlanta Center
02:27PM 33.5086 -85.2497 80° East 542 624 37,000  Level Atlanta Center
02:28PM 33.5353 -85.0656 80° East 547 629 37,000  Level Atlanta Center
02:29PM 33.5639 -84.8889 79° East 542 624 37,000  Level Atlanta Center
02:30PM 33.5878 -84.7072 81° East 547 629 37,000  Level Atlanta Center
02:31PM 33.6158 -84.5278 79° East 547 629 37,000  Level Atlanta Center
02:32PM 33.6497 -84.3533 77° East 542 624 37,000  Level Atlanta Center
02:33PM 33.6981 -84.1836 71° East 532 612 37,000 -480 Level Atlanta Center
02:34PM 33.7442 -84.0164 72° East 532 612 36,100 -900 Descending Atlanta Center
02:35PM 33.7919 -83.8489 71° East 532 612 35,200 -660 Descending Atlanta Center
02:36PM 33.8397 -83.6736 72° East 532 612 34,800 -720 Descending Atlanta Center
02:37PM 33.8869 -83.5058 71° East 537 618 33,800 -900 Descending Atlanta Center
02:38PM 33.9300 -83.3503 72° East 537 618 33,100 -900 Descending Atlanta Center
02:39PM 33.9750 -83.1822 72° East 531 611 32,100 -1,020 Descending Atlanta Center
02:40PM 34.0194 -83.0136 72° East 531 611 31,100 -960 Descending Atlanta Center
02:41PM 34.0639 -82.8453 72° East 526 605 30,200 -960 Descending Atlanta Center
02:42PM 34.1061 -82.6814 73° East 513 590 29,200 -1,740 Descending Atlanta Center
02:43PM 34.1603 -82.5025 70° East 513 590 26,800 -2,460 Descending Atlanta Center
02:44PM 34.2019 -82.3433 72° East 506 582 24,300 -1,920 Descending Atlanta Center
02:45PM 34.2436 -82.1817 73° East 500 575 23,000 -1,800 Descending Atlanta Center
02:46PM 34.3231 -82.0594 52° Northeast 472 543 20,700 -2,520 Descending Atlanta Center
02:47PM 34.4111 -81.9514 45° Northeast 455 524 18,000 -2,400 Descending Atlanta Center
02:48PM 34.4947 -81.8461 46° Northeast 441 507 15,900 -2,160 Descending Atlanta Center
02:49PM 34.5478 -81.7792 46° Northeast 423 487 14,400 -2,340 Descending Atlanta Center
02:49PM 34.5722 -81.7456 49° Northeast 421 484 13,600 -2,400 Descending Atlanta Center
02:49PM 34.6211 -81.6914 42° Northeast 404 465 12,200 -1,620 Descending Atlanta Center
02:50PM 34.6539 -81.6475 48° Northeast 409 471 12,000 -120 Descending Atlanta Center
02:50PM 34.7006 -81.5881 46° Northeast 406 467 12,100  Climbing Atlanta Center
02:51PM 34.7331 -81.5467 46° Northeast 404 465 12,000  Descending Atlanta Center
02:52PM 34.7881 -81.4717 48° Northeast 405 466 12,100  Climbing Atlanta Center
02:52PM 34.8106 -81.4508 37° Northeast 404 465 12,000 -600 Descending Atlanta Center
02:53PM 34.8653 -81.3731 49° Northeast 403 464 11,500 -1,200 Descending Atlanta Center
02:53PM 34.8833 -81.3497 47° Northeast 404 465 10,800 -1,380 Descending Atlanta Center
02:54PM 34.9483 -81.2717 45° Northeast 394 453 10,100 -840 Descending Atlanta Center
02:54PM 34.9606 -81.2533 51° Northeast 399 459 10,000  Descending Atlanta Center
02:55PM 35.0214 -81.1753 46° Northeast 389 448 10,100  Climbing Atlanta Center
02:55PM 35.0333 -81.1572 51° Northeast 392 451 10,000  Descending Atlanta Center
02:56PM 35.0944 -81.0839 44° Northeast 375 432 10,100  Climbing Atlanta Center
02:56PM 35.1064 -81.0683 47° Northeast 380 437 10,000 -900 Descending Atlanta Center
02:57PM 35.1733 -81.0683 360° North 268 308 9,200 -1,140 Descending Atlanta Center
02:57PM 35.1858 -81.0681 North 299 344 8,900 -1,500 Descending Atlanta Center
02:58PM 35.2611 -81.0756 355° North 273 314 7,500 -1,380 Descending Atlanta Center
02:59PM 35.3114 -81.0814 355° North 238 274 6,500 -960 Descending Atlanta Center
03:00PM 35.3822 -81.0839 358° North 236 272 5,800 -1,260 Descending Atlanta Center
03:01PM 35.3892 -81.0200 82° East 210 242 3,900 -1,320 Descending Atlanta Center
03:02PM 35.3483 -80.9806 142° Southeast 172 198 3,000 -780 Descending Atlanta Center
03:03PM 35.3086 -80.9772 176° South 150 173 2,400 -780 Descending Atlanta Center
03:04PM 35.2628 -80.9736 176° South 138 159 1,500 -840 Descending Atlanta Center